sensor_id;sensor_type;location;lat;lon;timestamp;temperature;humidity
67157;SHT31;54086;50.126;8.710;2022-11-14T00:00:08;5.93;90.41
67157;SHT31;54086;50.126;8.710;2022-11-14T00:02:35;5.83;90.23
67157;SHT31;54086;50.126;8.710;2022-11-14T00:05:00;5.79;90.35
67157;SHT31;54086;50.126;8.710;2022-11-14T00:07:29;5.79;90.31
67157;SHT31;54086;50.126;8.710;2022-11-14T00:09:54;5.77;90.33
67157;SHT31;54086;50.126;8.710;2022-11-14T00:12:19;5.77;90.25
67157;SHT31;54086;50.126;8.710;2022-11-14T00:14:44;5.80;90.33
67157;SHT31;54086;50.126;8.710;2022-11-14T00:17:10;5.76;90.16
67157;SHT31;54086;50.126;8.710;2022-11-14T00:19:35;5.74;90.21
67157;SHT31;54086;50.126;8.710;2022-11-14T00:22:00;5.70;90.11
67157;SHT31;54086;50.126;8.710;2022-11-14T00:24:26;5.70;90.28
67157;SHT31;54086;50.126;8.710;2022-11-14T00:26:51;5.70;90.31
67157;SHT31;54086;50.126;8.710;2022-11-14T00:29:16;5.72;90.23
67157;SHT31;54086;50.126;8.710;2022-11-14T00:31:42;5.69;90.09
67157;SHT31;54086;50.126;8.710;2022-11-14T00:34:07;5.67;89.78
67157;SHT31;54086;50.126;8.710;2022-11-14T00:36:33;5.66;89.89
67157;SHT31;54086;50.126;8.710;2022-11-14T00:38:58;5.60;89.95
67157;SHT31;54086;50.126;8.710;2022-11-14T00:41:24;5.59;89.93
67157;SHT31;54086;50.126;8.710;2022-11-14T00:43:49;5.49;90.08
67157;SHT31;54086;50.126;8.710;2022-11-14T00:46:15;5.46;90.26
67157;SHT31;54086;50.126;8.710;2022-11-14T00:48:40;5.42;90.25
67157;SHT31;54086;50.126;8.710;2022-11-14T00:51:06;5.35;90.42
67157;SHT31;54086;50.126;8.710;2022-11-14T00:53:31;5.35;90.36
67157;SHT31;54086;50.126;8.710;2022-11-14T00:55:57;5.34;90.40
67157;SHT31;54086;50.126;8.710;2022-11-14T00:58:22;5.32;90.33
67157;SHT31;54086;50.126;8.710;2022-11-14T01:00:47;5.28;90.25
67157;SHT31;54086;50.126;8.710;2022-11-14T01:03:13;5.31;90.44
67157;SHT31;54086;50.126;8.710;2022-11-14T01:05:46;5.27;90.44
67157;SHT31;54086;50.126;8.710;2022-11-14T01:08:14;5.31;90.39
67157;SHT31;54086;50.126;8.710;2022-11-14T01:10:47;5.32;90.12
67157;SHT31;54086;50.126;8.710;2022-11-14T01:13:13;5.28;90.04
67157;SHT31;54086;50.126;8.710;2022-11-14T01:15:44;5.27;90.14
67157;SHT31;54086;50.126;8.710;2022-11-14T01:18:12;5.31;90.22
67157;SHT31;54086;50.126;8.710;2022-11-14T01:20:38;5.31;89.99
67157;SHT31;54086;50.126;8.710;2022-11-14T01:23:04;5.31;89.99
67157;SHT31;54086;50.126;8.710;2022-11-14T01:25:32;5.31;89.91
67157;SHT31;54086;50.126;8.710;2022-11-14T01:27:57;5.31;89.89
67157;SHT31;54086;50.126;8.710;2022-11-14T01:30:23;5.29;90.10
67157;SHT31;54086;50.126;8.710;2022-11-14T01:32:48;5.34;90.10
67157;SHT31;54086;50.126;8.710;2022-11-14T01:35:13;5.27;90.03
67157;SHT31;54086;50.126;8.710;2022-11-14T01:37:39;5.25;90.11
67157;SHT31;54086;50.126;8.710;2022-11-14T01:40:04;5.18;89.97
67157;SHT31;54086;50.126;8.710;2022-11-14T01:42:30;5.24;89.97
67157;SHT31;54086;50.126;8.710;2022-11-14T01:44:55;5.18;90.08
67157;SHT31;54086;50.126;8.710;2022-11-14T01:47:28;5.18;90.17
67157;SHT31;54086;50.126;8.710;2022-11-14T01:49:57;5.20;90.15
67157;SHT31;54086;50.126;8.710;2022-11-14T01:52:26;5.18;89.89
67157;SHT31;54086;50.126;8.710;2022-11-14T01:54:54;5.15;89.96
67157;SHT31;54086;50.126;8.710;2022-11-14T01:57:25;5.12;89.98
67157;SHT31;54086;50.126;8.710;2022-11-14T01:59:53;5.10;90.15
67157;SHT31;54086;50.126;8.710;2022-11-14T02:02:23;5.07;90.41
67157;SHT31;54086;50.126;8.710;2022-11-14T02:05:03;5.02;90.41
67157;SHT31;54086;50.126;8.710;2022-11-14T02:07:32;5.02;90.39
67157;SHT31;54086;50.126;8.710;2022-11-14T02:10:00;5.02;90.47
67157;SHT31;54086;50.126;8.710;2022-11-14T02:12:27;5.00;90.58
67157;SHT31;54086;50.126;8.710;2022-11-14T02:14:54;5.01;90.52
67157;SHT31;54086;50.126;8.710;2022-11-14T02:17:21;4.98;90.49
67157;SHT31;54086;50.126;8.710;2022-11-14T02:19:50;5.02;90.72
67157;SHT31;54086;50.126;8.710;2022-11-14T02:22:16;5.00;90.45
67157;SHT31;54086;50.126;8.710;2022-11-14T02:24:42;4.94;90.30
67157;SHT31;54086;50.126;8.710;2022-11-14T02:27:09;5.00;90.89
67157;SHT31;54086;50.126;8.710;2022-11-14T02:29:34;4.90;91.25
67157;SHT31;54086;50.126;8.710;2022-11-14T02:32:00;4.97;91.11
67157;SHT31;54086;50.126;8.710;2022-11-14T02:34:26;4.80;91.50
67157;SHT31;54086;50.126;8.710;2022-11-14T02:36:51;4.80;91.63
67157;SHT31;54086;50.126;8.710;2022-11-14T02:39:17;4.76;91.82
67157;SHT31;54086;50.126;8.710;2022-11-14T02:41:42;4.70;91.87
67157;SHT31;54086;50.126;8.710;2022-11-14T02:44:07;4.79;91.92
67157;SHT31;54086;50.126;8.710;2022-11-14T02:46:33;4.71;91.90
67157;SHT31;54086;50.126;8.710;2022-11-14T02:48:58;4.60;92.04
67157;SHT31;54086;50.126;8.710;2022-11-14T02:51:23;4.57;92.25
67157;SHT31;54086;50.126;8.710;2022-11-14T02:53:49;4.53;92.37
67157;SHT31;54086;50.126;8.710;2022-11-14T02:56:14;4.67;92.18
67157;SHT31;54086;50.126;8.710;2022-11-14T02:58:39;4.63;92.14
67157;SHT31;54086;50.126;8.710;2022-11-14T03:01:05;4.67;92.43
67157;SHT31;54086;50.126;8.710;2022-11-14T03:03:30;4.60;92.27
67157;SHT31;54086;50.126;8.710;2022-11-14T03:06:00;4.50;92.26
67157;SHT31;54086;50.126;8.710;2022-11-14T03:08:25;4.45;92.54
67157;SHT31;54086;50.126;8.710;2022-11-14T03:10:51;4.48;92.43
67157;SHT31;54086;50.126;8.710;2022-11-14T03:13:16;4.42;92.54
67157;SHT31;54086;50.126;8.710;2022-11-14T03:15:41;4.45;92.61
67157;SHT31;54086;50.126;8.710;2022-11-14T03:18:07;4.46;92.76
67157;SHT31;54086;50.126;8.710;2022-11-14T03:20:33;4.48;92.85
67157;SHT31;54086;50.126;8.710;2022-11-14T03:22:58;4.52;92.87
67157;SHT31;54086;50.126;8.710;2022-11-14T03:25:24;4.49;92.50
67157;SHT31;54086;50.126;8.710;2022-11-14T03:27:49;4.53;92.15
67157;SHT31;54086;50.126;8.710;2022-11-14T03:30:14;4.54;91.85
67157;SHT31;54086;50.126;8.710;2022-11-14T03:32:40;4.54;91.88
67157;SHT31;54086;50.126;8.710;2022-11-14T03:35:06;4.59;92.00
67157;SHT31;54086;50.126;8.710;2022-11-14T03:37:31;4.60;91.80
67157;SHT31;54086;50.126;8.710;2022-11-14T03:39:57;4.64;91.67
67157;SHT31;54086;50.126;8.710;2022-11-14T03:42:22;4.67;91.68
67157;SHT31;54086;50.126;8.710;2022-11-14T03:44:47;4.67;91.69
67157;SHT31;54086;50.126;8.710;2022-11-14T03:47:13;4.71;91.59
67157;SHT31;54086;50.126;8.710;2022-11-14T03:49:38;4.70;91.18
67157;SHT31;54086;50.126;8.710;2022-11-14T03:52:03;4.71;91.25
67157;SHT31;54086;50.126;8.710;2022-11-14T03:54:29;4.70;90.93
67157;SHT31;54086;50.126;8.710;2022-11-14T03:56:54;4.50;91.20
67157;SHT31;54086;50.126;8.710;2022-11-14T03:59:19;4.39;91.63
67157;SHT31;54086;50.126;8.710;2022-11-14T04:01:45;4.36;91.67
67157;SHT31;54086;50.126;8.710;2022-11-14T04:04:11;4.30;92.00
67157;SHT31;54086;50.126;8.710;2022-11-14T04:06:37;4.26;92.33
67157;SHT31;54086;50.126;8.710;2022-11-14T04:09:02;4.32;92.37
67157;SHT31;54086;50.126;8.710;2022-11-14T04:11:28;4.32;92.36
67157;SHT31;54086;50.126;8.710;2022-11-14T04:13:53;4.40;92.27
67157;SHT31;54086;50.126;8.710;2022-11-14T04:16:19;4.35;92.19
67157;SHT31;54086;50.126;8.710;2022-11-14T04:18:44;4.35;92.12
67157;SHT31;54086;50.126;8.710;2022-11-14T04:21:09;4.33;92.05
67157;SHT31;54086;50.126;8.710;2022-11-14T04:23:35;4.29;92.17
67157;SHT31;54086;50.126;8.710;2022-11-14T04:26:00;4.32;92.29
67157;SHT31;54086;50.126;8.710;2022-11-14T04:28:25;4.39;91.96
67157;SHT31;54086;50.126;8.710;2022-11-14T04:30:51;4.39;91.63
67157;SHT31;54086;50.126;8.710;2022-11-14T04:33:17;4.40;91.66
67157;SHT31;54086;50.126;8.710;2022-11-14T04:35:42;4.49;91.54
67157;SHT31;54086;50.126;8.710;2022-11-14T04:38:09;4.53;91.52
67157;SHT31;54086;50.126;8.710;2022-11-14T04:40:34;4.48;91.52
67157;SHT31;54086;50.126;8.710;2022-11-14T04:42:59;4.43;91.50
67157;SHT31;54086;50.126;8.710;2022-11-14T04:45:25;4.36;91.52
67157;SHT31;54086;50.126;8.710;2022-11-14T04:47:50;4.38;91.38
67157;SHT31;54086;50.126;8.710;2022-11-14T04:50:16;4.42;91.16
67157;SHT31;54086;50.126;8.710;2022-11-14T04:52:41;4.38;91.40
67157;SHT31;54086;50.126;8.710;2022-11-14T04:55:07;4.40;91.45
67157;SHT31;54086;50.126;8.710;2022-11-14T04:57:32;4.42;91.48
67157;SHT31;54086;50.126;8.710;2022-11-14T04:59:57;4.46;91.27
67157;SHT31;54086;50.126;8.710;2022-11-14T05:02:23;4.52;91.29
67157;SHT31;54086;50.126;8.710;2022-11-14T05:04:48;4.59;91.09
67157;SHT31;54086;50.126;8.710;2022-11-14T05:07:14;4.63;91.13
67157;SHT31;54086;50.126;8.710;2022-11-14T05:09:39;4.76;90.90
67157;SHT31;54086;50.126;8.710;2022-11-14T05:12:05;4.77;90.89
67157;SHT31;54086;50.126;8.710;2022-11-14T05:14:31;4.76;91.04
67157;SHT31;54086;50.126;8.710;2022-11-14T05:16:56;4.81;91.06
67157;SHT31;54086;50.126;8.710;2022-11-14T05:19:22;4.81;90.92
67157;SHT31;54086;50.126;8.710;2022-11-14T05:21:48;4.85;90.83
67157;SHT31;54086;50.126;8.710;2022-11-14T05:24:13;4.90;91.15
67157;SHT31;54086;50.126;8.710;2022-11-14T05:26:39;4.87;91.15
67157;SHT31;54086;50.126;8.710;2022-11-14T05:29:04;4.92;91.09
67157;SHT31;54086;50.126;8.710;2022-11-14T05:31:30;4.98;90.65
67157;SHT31;54086;50.126;8.710;2022-11-14T05:33:55;4.97;90.64
67157;SHT31;54086;50.126;8.710;2022-11-14T05:36:21;4.91;90.81
67157;SHT31;54086;50.126;8.710;2022-11-14T05:38:46;4.91;90.67
67157;SHT31;54086;50.126;8.710;2022-11-14T05:41:16;4.94;90.59
67157;SHT31;54086;50.126;8.710;2022-11-14T05:43:42;4.90;90.52
67157;SHT31;54086;50.126;8.710;2022-11-14T05:46:10;4.94;90.66
67157;SHT31;54086;50.126;8.710;2022-11-14T05:48:36;4.92;90.76
67157;SHT31;54086;50.126;8.710;2022-11-14T05:51:03;4.84;90.99
67157;SHT31;54086;50.126;8.710;2022-11-14T05:53:30;4.90;91.13
67157;SHT31;54086;50.126;8.710;2022-11-14T05:55:59;4.92;90.96
67157;SHT31;54086;50.126;8.710;2022-11-14T05:58:25;4.92;90.95
67157;SHT31;54086;50.126;8.710;2022-11-14T06:00:51;5.02;90.91
67157;SHT31;54086;50.126;8.710;2022-11-14T06:03:16;5.05;90.67
67157;SHT31;54086;50.126;8.710;2022-11-14T06:05:42;5.10;90.66
67157;SHT31;54086;50.126;8.710;2022-11-14T06:08:08;5.10;90.36
67157;SHT31;54086;50.126;8.710;2022-11-14T06:10:33;5.02;90.22
67157;SHT31;54086;50.126;8.710;2022-11-14T06:12:59;5.14;90.46
67157;SHT31;54086;50.126;8.710;2022-11-14T06:15:24;5.14;90.09
67157;SHT31;54086;50.126;8.710;2022-11-14T06:17:52;5.14;90.09
67157;SHT31;54086;50.126;8.710;2022-11-14T06:20:17;5.14;90.20
67157;SHT31;54086;50.126;8.710;2022-11-14T06:22:43;5.15;90.19
67157;SHT31;54086;50.126;8.710;2022-11-14T06:25:08;5.18;90.19
67157;SHT31;54086;50.126;8.710;2022-11-14T06:27:34;5.20;90.04
67157;SHT31;54086;50.126;8.710;2022-11-14T06:29:59;5.22;90.18
67157;SHT31;54086;50.126;8.710;2022-11-14T06:32:24;5.27;90.22
67157;SHT31;54086;50.126;8.710;2022-11-14T06:34:50;5.35;90.01
67157;SHT31;54086;50.126;8.710;2022-11-14T06:37:15;5.36;89.91
67157;SHT31;54086;50.126;8.710;2022-11-14T06:39:40;5.36;89.96
67157;SHT31;54086;50.126;8.710;2022-11-14T06:42:06;5.35;90.19
67157;SHT31;54086;50.126;8.710;2022-11-14T06:44:31;5.36;90.05
67157;SHT31;54086;50.126;8.710;2022-11-14T06:46:56;5.34;90.14
67157;SHT31;54086;50.126;8.710;2022-11-14T06:49:22;5.50;90.01
67157;SHT31;54086;50.126;8.710;2022-11-14T06:51:49;5.60;89.95
67157;SHT31;54086;50.126;8.710;2022-11-14T06:54:15;5.66;89.87
67157;SHT31;54086;50.126;8.710;2022-11-14T06:56:41;5.74;89.78
67157;SHT31;54086;50.126;8.710;2022-11-14T06:59:06;5.80;89.63
67157;SHT31;54086;50.126;8.710;2022-11-14T07:01:32;5.83;89.85
67157;SHT31;54086;50.126;8.710;2022-11-14T07:03:57;5.83;89.69
67157;SHT31;54086;50.126;8.710;2022-11-14T07:06:26;5.86;89.77
67157;SHT31;54086;50.126;8.710;2022-11-14T07:08:52;5.90;89.82
67157;SHT31;54086;50.126;8.710;2022-11-14T07:11:20;5.91;89.78
67157;SHT31;54086;50.126;8.710;2022-11-14T07:13:53;5.91;89.66
67157;SHT31;54086;50.126;8.710;2022-11-14T07:16:22;5.94;89.66
67157;SHT31;54086;50.126;8.710;2022-11-14T07:18:48;5.90;89.55
67157;SHT31;54086;50.126;8.710;2022-11-14T07:21:13;5.89;89.82
67157;SHT31;54086;50.126;8.710;2022-11-14T07:23:39;5.94;89.96
67157;SHT31;54086;50.126;8.710;2022-11-14T07:26:06;5.90;89.95
67157;SHT31;54086;50.126;8.710;2022-11-14T07:28:40;5.89;89.99
67157;SHT31;54086;50.126;8.710;2022-11-14T07:31:07;5.89;90.17
67157;SHT31;54086;50.126;8.710;2022-11-14T07:33:33;5.94;89.99
67157;SHT31;54086;50.126;8.710;2022-11-14T07:35:59;5.93;90.01
67157;SHT31;54086;50.126;8.710;2022-11-14T07:38:24;5.97;89.90
67157;SHT31;54086;50.126;8.710;2022-11-14T07:43:18;6.06;89.82
67157;SHT31;54086;50.126;8.710;2022-11-14T07:45:44;6.06;89.91
67157;SHT31;54086;50.126;8.710;2022-11-14T07:48:09;6.03;89.98
67157;SHT31;54086;50.126;8.710;2022-11-14T07:50:34;6.01;90.00
67157;SHT31;54086;50.126;8.710;2022-11-14T07:53:00;6.16;89.86
67157;SHT31;54086;50.126;8.710;2022-11-14T07:55:25;6.10;89.86
67157;SHT31;54086;50.126;8.710;2022-11-14T07:57:54;6.25;89.87
67157;SHT31;54086;50.126;8.710;2022-11-14T08:00:20;6.25;89.44
67157;SHT31;54086;50.126;8.710;2022-11-14T08:02:46;6.28;89.48
67157;SHT31;54086;50.126;8.710;2022-11-14T08:05:11;6.28;89.65
67157;SHT31;54086;50.126;8.710;2022-11-14T08:07:37;6.27;89.70
67157;SHT31;54086;50.126;8.710;2022-11-14T08:10:03;6.32;89.46
67157;SHT31;54086;50.126;8.710;2022-11-14T08:12:28;6.37;89.59
67157;SHT31;54086;50.126;8.710;2022-11-14T08:14:54;6.44;89.59
67157;SHT31;54086;50.126;8.710;2022-11-14T08:17:20;6.44;89.44
67157;SHT31;54086;50.126;8.710;2022-11-14T08:19:45;6.42;89.54
67157;SHT31;54086;50.126;8.710;2022-11-14T08:22:10;6.41;89.58
67157;SHT31;54086;50.126;8.710;2022-11-14T08:24:36;6.30;89.90
67157;SHT31;54086;50.126;8.710;2022-11-14T08:27:01;6.28;90.24
67157;SHT31;54086;50.126;8.710;2022-11-14T08:29:26;6.32;89.86
67157;SHT31;54086;50.126;8.710;2022-11-14T08:31:52;6.32;89.97
67157;SHT31;54086;50.126;8.710;2022-11-14T08:34:17;6.25;90.15
67157;SHT31;54086;50.126;8.710;2022-11-14T08:36:43;6.22;90.39
67157;SHT31;54086;50.126;8.710;2022-11-14T08:39:08;6.45;90.28
67157;SHT31;54086;50.126;8.710;2022-11-14T08:41:33;6.45;90.01
67157;SHT31;54086;50.126;8.710;2022-11-14T08:43:59;6.55;89.79
67157;SHT31;54086;50.126;8.710;2022-11-14T08:46:24;6.62;89.61
67157;SHT31;54086;50.126;8.710;2022-11-14T08:48:49;6.59;89.46
67157;SHT31;54086;50.126;8.710;2022-11-14T08:51:15;6.61;89.56
67157;SHT31;54086;50.126;8.710;2022-11-14T08:53:40;6.52;89.69
67157;SHT31;54086;50.126;8.710;2022-11-14T08:56:08;6.44;90.01
67157;SHT31;54086;50.126;8.710;2022-11-14T08:58:34;6.42;90.15
67157;SHT31;54086;50.126;8.710;2022-11-14T09:01:04;6.46;90.21
67157;SHT31;54086;50.126;8.710;2022-11-14T09:03:30;6.44;89.95
67157;SHT31;54086;50.126;8.710;2022-11-14T09:05:55;6.38;90.16
67157;SHT31;54086;50.126;8.710;2022-11-14T09:08:21;6.42;89.94
67157;SHT31;54086;50.126;8.710;2022-11-14T09:10:47;6.40;89.79
67157;SHT31;54086;50.126;8.710;2022-11-14T09:13:12;6.49;89.71
67157;SHT31;54086;50.126;8.710;2022-11-14T09:15:38;6.45;89.42
67157;SHT31;54086;50.126;8.710;2022-11-14T09:18:03;6.48;89.47
67157;SHT31;54086;50.126;8.710;2022-11-14T09:20:28;6.58;89.36
67157;SHT31;54086;50.126;8.710;2022-11-14T09:22:57;6.72;88.85
67157;SHT31;54086;50.126;8.710;2022-11-14T09:25:23;6.82;88.65
67157;SHT31;54086;50.126;8.710;2022-11-14T09:27:50;6.97;88.59
67157;SHT31;54086;50.126;8.710;2022-11-14T09:30:16;7.11;88.16
67157;SHT31;54086;50.126;8.710;2022-11-14T09:32:41;7.04;88.12
67157;SHT31;54086;50.126;8.710;2022-11-14T09:35:07;7.03;88.28
67157;SHT31;54086;50.126;8.710;2022-11-14T09:37:32;7.01;87.92
67157;SHT31;54086;50.126;8.710;2022-11-14T09:39:57;7.10;88.00
67157;SHT31;54086;50.126;8.710;2022-11-14T09:45:03;7.26;87.62
67157;SHT31;54086;50.126;8.710;2022-11-14T09:47:32;7.17;87.19
67157;SHT31;54086;50.126;8.710;2022-11-14T09:50:15;7.20;87.14
67157;SHT31;54086;50.126;8.710;2022-11-14T09:52:44;7.26;87.05
67157;SHT31;54086;50.126;8.710;2022-11-14T09:55:26;7.34;86.74
67157;SHT31;54086;50.126;8.710;2022-11-14T09:57:52;7.26;86.65
67157;SHT31;54086;50.126;8.710;2022-11-14T10:00:20;7.43;86.57
67157;SHT31;54086;50.126;8.710;2022-11-14T10:03:04;7.57;86.17
67157;SHT31;54086;50.126;8.710;2022-11-14T10:05:48;7.77;85.75
67157;SHT31;54086;50.126;8.710;2022-11-14T10:11:16;8.05;85.12
67157;SHT31;54086;50.126;8.710;2022-11-14T10:19:46;8.34;84.39
67157;SHT31;54086;50.126;8.710;2022-11-14T10:23:14;8.23;84.14
67157;SHT31;54086;50.126;8.710;2022-11-14T10:30:18;8.70;83.64
67157;SHT31;54086;50.126;8.710;2022-11-14T10:35:41;8.81;83.18
67157;SHT31;54086;50.126;8.710;2022-11-14T10:38:18;8.84;83.20
67157;SHT31;54086;50.126;8.710;2022-11-14T10:40:58;8.84;83.18
67157;SHT31;54086;50.126;8.710;2022-11-14T10:43:38;8.84;83.44
67157;SHT31;54086;50.126;8.710;2022-11-14T10:46:27;8.88;83.05
67157;SHT31;54086;50.126;8.710;2022-11-14T10:48:54;8.84;83.11
67157;SHT31;54086;50.126;8.710;2022-11-14T10:54:11;8.98;83.31
67157;SHT31;54086;50.126;8.710;2022-11-14T10:56:53;8.92;83.32
67157;SHT31;54086;50.126;8.710;2022-11-14T10:59:19;8.97;83.13
67157;SHT31;54086;50.126;8.710;2022-11-14T11:04:35;9.33;82.31
67157;SHT31;54086;50.126;8.710;2022-11-14T11:09:34;9.70;81.62
67157;SHT31;54086;50.126;8.710;2022-11-14T11:15:13;9.79;81.36
67157;SHT31;54086;50.126;8.710;2022-11-14T11:18:05;9.80;81.23
67157;SHT31;54086;50.126;8.710;2022-11-14T11:20:36;10.04;80.70
67157;SHT31;54086;50.126;8.710;2022-11-14T11:23:10;10.15;80.43
67157;SHT31;54086;50.126;8.710;2022-11-14T11:25:41;10.22;80.53
67157;SHT31;54086;50.126;8.710;2022-11-14T11:30:35;10.15;80.07
67157;SHT31;54086;50.126;8.710;2022-11-14T11:33:22;10.34;80.32
67157;SHT31;54086;50.126;8.710;2022-11-14T11:35:49;10.42;80.10
67157;SHT31;54086;50.126;8.710;2022-11-14T11:38:15;10.31;80.16
67157;SHT31;54086;50.126;8.710;2022-11-14T11:40:53;10.37;80.25
67157;SHT31;54086;50.126;8.710;2022-11-14T11:45:58;10.52;79.72
67157;SHT31;54086;50.126;8.710;2022-11-14T11:48:36;10.44;80.90
67157;SHT31;54086;50.126;8.710;2022-11-14T11:51:04;10.53;81.08
67157;SHT31;54086;50.126;8.710;2022-11-14T11:53:40;10.63;80.82
67157;SHT31;54086;50.126;8.710;2022-11-14T11:56:16;10.68;80.11
67157;SHT31;54086;50.126;8.710;2022-11-14T11:58:49;10.62;80.39
67157;SHT31;54086;50.126;8.710;2022-11-14T12:01:15;10.56;80.06
67157;SHT31;54086;50.126;8.710;2022-11-14T12:03:51;10.69;79.92
67157;SHT31;54086;50.126;8.710;2022-11-14T12:11:31;10.55;80.17
67157;SHT31;54086;50.126;8.710;2022-11-14T12:17:13;10.65;80.20
67157;SHT31;54086;50.126;8.710;2022-11-14T12:22:41;10.89;79.44
67157;SHT31;54086;50.126;8.710;2022-11-14T12:25:28;10.92;79.69
67157;SHT31;54086;50.126;8.710;2022-11-14T12:30:38;10.80;80.19
67157;SHT31;54086;50.126;8.710;2022-11-14T12:33:17;10.86;80.20
67157;SHT31;54086;50.126;8.710;2022-11-14T12:35:52;10.90;80.02
67157;SHT31;54086;50.126;8.710;2022-11-14T12:38:19;11.00;80.07
67157;SHT31;54086;50.126;8.710;2022-11-14T12:40:53;10.97;79.84
67157;SHT31;54086;50.126;8.710;2022-11-14T12:43:34;10.89;80.00
67157;SHT31;54086;50.126;8.710;2022-11-14T12:46:04;10.79;80.56
67157;SHT31;54086;50.126;8.710;2022-11-14T12:48:37;10.79;80.56
67157;SHT31;54086;50.126;8.710;2022-11-14T12:51:07;10.84;80.74
67157;SHT31;54086;50.126;8.710;2022-11-14T12:53:50;10.89;80.81
67157;SHT31;54086;50.126;8.710;2022-11-14T13:04:29;10.87;80.94
67157;SHT31;54086;50.126;8.710;2022-11-14T13:10:12;10.90;81.06
67157;SHT31;54086;50.126;8.710;2022-11-14T13:12:38;10.86;81.17
67157;SHT31;54086;50.126;8.710;2022-11-14T13:15:29;10.84;81.42
67157;SHT31;54086;50.126;8.710;2022-11-14T13:18:21;10.79;81.75
67157;SHT31;54086;50.126;8.710;2022-11-14T13:24:00;10.84;82.11
67157;SHT31;54086;50.126;8.710;2022-11-14T13:28:54;10.75;82.53
67157;SHT31;54086;50.126;8.710;2022-11-14T13:34:26;10.58;83.55
67157;SHT31;54086;50.126;8.710;2022-11-14T13:37:09;10.48;84.48
67157;SHT31;54086;50.126;8.710;2022-11-14T13:42:34;10.41;85.56
67157;SHT31;54086;50.126;8.710;2022-11-14T13:45:29;10.35;85.31
67157;SHT31;54086;50.126;8.710;2022-11-14T13:50:33;10.34;86.38
67157;SHT31;54086;50.126;8.710;2022-11-14T13:53:01;10.41;86.34
67157;SHT31;54086;50.126;8.710;2022-11-14T13:58:29;10.42;86.27
67157;SHT31;54086;50.126;8.710;2022-11-14T14:09:14;10.41;86.27
67157;SHT31;54086;50.126;8.710;2022-11-14T14:14:32;10.38;86.30
67157;SHT31;54086;50.126;8.710;2022-11-14T14:17:08;10.41;86.20
67157;SHT31;54086;50.126;8.710;2022-11-14T14:30:18;10.50;85.91
67157;SHT31;54086;50.126;8.710;2022-11-14T14:35:33;10.53;85.78
67157;SHT31;54086;50.126;8.710;2022-11-14T14:37:59;10.56;85.71
67157;SHT31;54086;50.126;8.710;2022-11-14T14:40:35;10.60;85.72
67157;SHT31;54086;50.126;8.710;2022-11-14T14:43:04;10.70;85.45
67157;SHT31;54086;50.126;8.710;2022-11-14T14:45:43;10.70;85.37
67157;SHT31;54086;50.126;8.710;2022-11-14T14:48:14;10.69;85.52
67157;SHT31;54086;50.126;8.710;2022-11-14T14:50:51;10.70;85.72
67157;SHT31;54086;50.126;8.710;2022-11-14T14:53:32;10.72;85.72
67157;SHT31;54086;50.126;8.710;2022-11-14T14:56:03;10.75;85.42
67157;SHT31;54086;50.126;8.710;2022-11-14T14:58:31;10.72;85.70
67157;SHT31;54086;50.126;8.710;2022-11-14T15:03:25;10.77;85.71
67157;SHT31;54086;50.126;8.710;2022-11-14T15:06:03;10.76;86.03
67157;SHT31;54086;50.126;8.710;2022-11-14T15:08:34;10.77;85.76
67157;SHT31;54086;50.126;8.710;2022-11-14T15:11:00;10.77;86.08
67157;SHT31;54086;50.126;8.710;2022-11-14T15:13:27;10.80;85.60
67157;SHT31;54086;50.126;8.710;2022-11-14T15:15:54;10.84;85.63
67157;SHT31;54086;50.126;8.710;2022-11-14T15:18:25;10.79;85.54
67157;SHT31;54086;50.126;8.710;2022-11-14T15:23:38;10.79;85.65
67157;SHT31;54086;50.126;8.710;2022-11-14T15:26:16;10.79;85.71
67157;SHT31;54086;50.126;8.710;2022-11-14T15:28:42;10.81;85.62
67157;SHT31;54086;50.126;8.710;2022-11-14T15:31:15;10.81;85.75
67157;SHT31;54086;50.126;8.710;2022-11-14T15:33:42;10.84;85.71
67157;SHT31;54086;50.126;8.710;2022-11-14T15:36:10;10.89;85.54
67157;SHT31;54086;50.126;8.710;2022-11-14T15:38:36;10.86;85.61
67157;SHT31;54086;50.126;8.710;2022-11-14T15:41:21;10.89;85.67
67157;SHT31;54086;50.126;8.710;2022-11-14T15:43:49;10.84;85.80
67157;SHT31;54086;50.126;8.710;2022-11-14T15:49:21;10.90;85.75
67157;SHT31;54086;50.126;8.710;2022-11-14T15:57:21;10.97;85.68
67157;SHT31;54086;50.126;8.710;2022-11-14T15:59:47;10.93;85.89
67157;SHT31;54086;50.126;8.710;2022-11-14T16:02:25;11.01;85.73
67157;SHT31;54086;50.126;8.710;2022-11-14T16:04:54;11.01;85.81
67157;SHT31;54086;50.126;8.710;2022-11-14T16:07:20;10.99;85.85
67157;SHT31;54086;50.126;8.710;2022-11-14T16:09:46;11.03;85.80
67157;SHT31;54086;50.126;8.710;2022-11-14T16:12:11;11.03;85.89
67157;SHT31;54086;50.126;8.710;2022-11-14T16:14:37;10.99;86.01
67157;SHT31;54086;50.126;8.710;2022-11-14T16:17:03;10.96;86.06
67157;SHT31;54086;50.126;8.710;2022-11-14T16:19:28;10.96;86.15
67157;SHT31;54086;50.126;8.710;2022-11-14T16:21:59;10.90;86.41
67157;SHT31;54086;50.126;8.710;2022-11-14T16:24:27;10.93;86.40
67157;SHT31;54086;50.126;8.710;2022-11-14T16:26:53;10.92;86.33
67157;SHT31;54086;50.126;8.710;2022-11-14T16:29:18;10.90;86.49
67157;SHT31;54086;50.126;8.710;2022-11-14T16:31:44;10.86;86.53
67157;SHT31;54086;50.126;8.710;2022-11-14T16:34:15;10.83;86.92
67157;SHT31;54086;50.126;8.710;2022-11-14T16:36:42;10.81;86.95
67157;SHT31;54086;50.126;8.710;2022-11-14T16:39:10;10.80;86.94
67157;SHT31;54086;50.126;8.710;2022-11-14T16:41:37;10.80;87.09
67157;SHT31;54086;50.126;8.710;2022-11-14T16:44:03;10.77;87.14
67157;SHT31;54086;50.126;8.710;2022-11-14T16:46:28;10.73;87.29
67157;SHT31;54086;50.126;8.710;2022-11-14T16:48:54;10.75;87.40
67157;SHT31;54086;50.126;8.710;2022-11-14T16:51:19;10.73;87.43
67157;SHT31;54086;50.126;8.710;2022-11-14T16:53:44;10.72;87.53
67157;SHT31;54086;50.126;8.710;2022-11-14T16:56:10;10.72;87.69
67157;SHT31;54086;50.126;8.710;2022-11-14T16:58:37;10.69;87.65
67157;SHT31;54086;50.126;8.710;2022-11-14T17:01:05;10.72;87.70
67157;SHT31;54086;50.126;8.710;2022-11-14T17:03:31;10.69;87.84
67157;SHT31;54086;50.126;8.710;2022-11-14T17:05:57;10.70;87.76
67157;SHT31;54086;50.126;8.710;2022-11-14T17:08:23;10.72;87.78
67157;SHT31;54086;50.126;8.710;2022-11-14T17:10:48;10.68;87.87
67157;SHT31;54086;50.126;8.710;2022-11-14T17:13:14;10.70;87.84
67157;SHT31;54086;50.126;8.710;2022-11-14T17:15:41;10.70;88.05
67157;SHT31;54086;50.126;8.710;2022-11-14T17:18:06;10.72;88.05
67157;SHT31;54086;50.126;8.710;2022-11-14T17:20:32;10.72;87.92
67157;SHT31;54086;50.126;8.710;2022-11-14T17:22:57;10.70;87.97
67157;SHT31;54086;50.126;8.710;2022-11-14T17:25:23;10.73;88.01
67157;SHT31;54086;50.126;8.710;2022-11-14T17:27:48;10.75;87.91
67157;SHT31;54086;50.126;8.710;2022-11-14T17:30:15;10.77;87.93
67157;SHT31;54086;50.126;8.710;2022-11-14T17:32:41;10.80;88.02
67157;SHT31;54086;50.126;8.710;2022-11-14T17:35:07;10.84;87.72
67157;SHT31;54086;50.126;8.710;2022-11-14T17:37:32;10.81;87.83
67157;SHT31;54086;50.126;8.710;2022-11-14T17:39:58;10.80;87.93
67157;SHT31;54086;50.126;8.710;2022-11-14T17:42:23;10.84;87.77
67157;SHT31;54086;50.126;8.710;2022-11-14T17:44:49;10.89;87.73